sensor_id;sensor_type;location;lat;lon;timestamp;pressure;altitude;pressure_sealevel;temperature;humidity
64292;BME280;50628;51.008;13.658;2023-04-28T00:00:07;100016.22;;;4.55;100.00
64292;BME280;50628;51.008;13.658;2023-04-28T00:05:09;100008.44;;;4.39;100.00
64292;BME280;50628;51.008;13.658;2023-04-28T00:10:13;100003.34;;;4.55;100.00
64292;BME280;50628;51.008;13.658;2023-04-28T00:15:15;99995.97;;;4.31;100.00
64292;BME280;50628;51.008;13.658;2023-04-28T00:20:16;99998.69;;;4.28;100.00
64292;BME280;50628;51.008;13.658;2023-04-28T00:25:20;99994.59;;;4.24;100.00
64292;BME280;50628;51.008;13.658;2023-04-28T00:30:21;99994.59;;;4.24;100.00
64292;BME280;50628;51.008;13.658;2023-04-28T00:35:24;99979.72;;;4.29;100.00
64292;BME280;50628;51.008;13.658;2023-04-28T00:40:33;99963.44;;;4.29;100.00
64292;BME280;50628;51.008;13.658;2023-04-28T00:45:34;99967.56;;;3.98;100.00
64292;BME280;50628;51.008;13.658;2023-04-28T00:50:36;99960.34;;;3.87;100.00
64292;BME280;50628;51.008;13.658;2023-04-28T00:55:40;99958.16;;;3.80;100.00
64292;BME280;50628;51.008;13.658;2023-04-28T01:00:42;99943.41;;;4.01;100.00
64292;BME280;50628;51.008;13.658;2023-04-28T01:05:44;99936.66;;;3.98;100.00
64292;BME280;50628;51.008;13.658;2023-04-28T01:10:48;99936.91;;;4.27;100.00
64292;BME280;50628;51.008;13.658;2023-04-28T01:16:07;99929.25;;;4.25;100.00
64292;BME280;50628;51.008;13.658;2023-04-28T01:21:09;99930.50;;;4.51;100.00
64292;BME280;50628;51.008;13.658;2023-04-28T01:26:13;99930.34;;;4.21;100.00
64292;BME280;50628;51.008;13.658;2023-04-28T01:31:15;99926.25;;;4.50;100.00
64292;BME280;50628;51.008;13.658;2023-04-28T01:36:17;99917.31;;;4.24;100.00
64292;BME280;50628;51.008;13.658;2023-04-28T01:41:20;99912.63;;;3.98;100.00
64292;BME280;50628;51.008;13.658;2023-04-28T01:46:22;99911.16;;;3.94;100.00
64292;BME280;50628;51.008;13.658;2023-04-28T01:51:24;99905.19;;;4.26;100.00
64292;BME280;50628;51.008;13.658;2023-04-28T01:56:28;99898.25;;;4.11;100.00
64292;BME280;50628;51.008;13.658;2023-04-28T02:01:31;99897.31;;;4.12;100.00
64292;BME280;50628;51.008;13.658;2023-04-28T02:06:34;99894.94;;;3.92;100.00
64292;BME280;50628;51.008;13.658;2023-04-28T02:11:37;99884.91;;;4.03;100.00
64292;BME280;50628;51.008;13.658;2023-04-28T02:16:39;99889.34;;;3.83;100.00
64292;BME280;50628;51.008;13.658;2023-04-28T02:21:41;99884.31;;;3.98;100.00
64292;BME280;50628;51.008;13.658;2023-04-28T02:26:44;99876.78;;;4.10;100.00
64292;BME280;50628;51.008;13.658;2023-04-28T02:31:46;99880.25;;;3.76;100.00
64292;BME280;50628;51.008;13.658;2023-04-28T02:36:48;99873.19;;;3.97;100.00
64292;BME280;50628;51.008;13.658;2023-04-28T02:41:51;99865.56;;;3.78;100.00
64292;BME280;50628;51.008;13.658;2023-04-28T02:46:53;99860.31;;;3.80;100.00
64292;BME280;50628;51.008;13.658;2023-04-28T02:51:55;99856.66;;;3.68;100.00
64292;BME280;50628;51.008;13.658;2023-04-28T02:56:58;99848.84;;;3.69;100.00
64292;BME280;50628;51.008;13.658;2023-04-28T03:02:00;99852.03;;;3.90;100.00
64292;BME280;50628;51.008;13.658;2023-04-28T03:07:02;99849.53;;;4.06;100.00
64292;BME280;50628;51.008;13.658;2023-04-28T03:12:06;99840.16;;;3.88;100.00
64292;BME280;50628;51.008;13.658;2023-04-28T03:17:08;99831.81;;;3.67;100.00
64292;BME280;50628;51.008;13.658;2023-04-28T03:22:10;99817.44;;;3.45;100.00
64292;BME280;50628;51.008;13.658;2023-04-28T03:27:13;99815.00;;;3.42;100.00
64292;BME280;50628;51.008;13.658;2023-04-28T03:32:15;99820.09;;;3.27;100.00
64292;BME280;50628;51.008;13.658;2023-04-28T03:37:17;99818.50;;;3.41;100.00
64292;BME280;50628;51.008;13.658;2023-04-28T03:42:20;99808.44;;;3.54;100.00
64292;BME280;50628;51.008;13.658;2023-04-28T03:47:37;99804.88;;;3.57;100.00
64292;BME280;50628;51.008;13.658;2023-04-28T03:52:39;99816.59;;;3.62;100.00
64292;BME280;50628;51.008;13.658;2023-04-28T03:57:43;99819.09;;;3.64;100.00
64292;BME280;50628;51.008;13.658;2023-04-28T04:02:45;99807.44;;;3.57;100.00
64292;BME280;50628;51.008;13.658;2023-04-28T04:07:47;99797.06;;;3.58;100.00
64292;BME280;50628;51.008;13.658;2023-04-28T04:12:50;99788.97;;;3.66;100.00
64292;BME280;50628;51.008;13.658;2023-04-28T04:17:52;99785.69;;;3.62;100.00
64292;BME280;50628;51.008;13.658;2023-04-28T04:22:56;99779.66;;;3.63;100.00
64292;BME280;50628;51.008;13.658;2023-04-28T04:27:59;99766.16;;;3.76;100.00
64292;BME280;50628;51.008;13.658;2023-04-28T04:33:01;99762.28;;;4.00;100.00
64292;BME280;50628;51.008;13.658;2023-04-28T04:38:03;99765.13;;;4.11;100.00
64292;BME280;50628;51.008;13.658;2023-04-28T04:43:08;99753.41;;;4.38;100.00
64292;BME280;50628;51.008;13.658;2023-04-28T04:48:17;99756.75;;;4.24;100.00
64292;BME280;50628;51.008;13.658;2023-04-28T04:53:19;99751.06;;;4.33;100.00
64292;BME280;50628;51.008;13.658;2023-04-28T04:58:23;99750.31;;;4.47;100.00
64292;BME280;50628;51.008;13.658;2023-04-28T05:03:34;99746.56;;;4.52;100.00
64292;BME280;50628;51.008;13.658;2023-04-28T05:08:36;99740.66;;;4.66;100.00
64292;BME280;50628;51.008;13.658;2023-04-28T05:13:39;99738.72;;;4.70;100.00
64292;BME280;50628;51.008;13.658;2023-04-28T05:18:41;99737.78;;;4.87;100.00
64292;BME280;50628;51.008;13.658;2023-04-28T05:23:44;99736.84;;;4.88;100.00
64292;BME280;50628;51.008;13.658;2023-04-28T05:28:47;99725.84;;;5.00;100.00
64292;BME280;50628;51.008;13.658;2023-04-28T05:33:50;99708.22;;;4.92;100.00
64292;BME280;50628;51.008;13.658;2023-04-28T05:38:52;99716.00;;;5.21;100.00
64292;BME280;50628;51.008;13.658;2023-04-28T05:43:57;99699.91;;;5.32;100.00
64292;BME280;50628;51.008;13.658;2023-04-28T05:48:59;99706.16;;;5.56;100.00
64292;BME280;50628;51.008;13.658;2023-04-28T05:54:06;99701.66;;;5.60;100.00
64292;BME280;50628;51.008;13.658;2023-04-28T05:59:15;99705.69;;;5.93;100.00
64292;BME280;50628;51.008;13.658;2023-04-28T06:04:17;99705.72;;;6.20;100.00
64292;BME280;50628;51.008;13.658;2023-04-28T06:09:21;99699.81;;;6.45;100.00
64292;BME280;50628;51.008;13.658;2023-04-28T06:14:24;99701.91;;;6.53;100.00
64292;BME280;50628;51.008;13.658;2023-04-28T06:19:26;99701.69;;;6.83;100.00
64292;BME280;50628;51.008;13.658;2023-04-28T06:24:28;99682.38;;;7.14;100.00
64292;BME280;50628;51.008;13.658;2023-04-28T06:29:33;99685.38;;;7.33;100.00
64292;BME280;50628;51.008;13.658;2023-04-28T06:34:36;99684.63;;;7.57;100.00
64292;BME280;50628;51.008;13.658;2023-04-28T06:39:38;99673.59;;;7.79;100.00
64292;BME280;50628;51.008;13.658;2023-04-28T06:44:42;99678.50;;;8.08;100.00
64292;BME280;50628;51.008;13.658;2023-04-28T06:49:43;99670.69;;;8.44;100.00
64292;BME280;50628;51.008;13.658;2023-04-28T06:54:46;99666.19;;;8.71;100.00
64292;BME280;50628;51.008;13.658;2023-04-28T06:59:50;99661.38;;;8.88;100.00
64292;BME280;50628;51.008;13.658;2023-04-28T07:04:52;99657.41;;;9.29;100.00
64292;BME280;50628;51.008;13.658;2023-04-28T07:09:54;99649.94;;;9.70;100.00
64292;BME280;50628;51.008;13.658;2023-04-28T07:14:58;99645.97;;;10.09;100.00
64292;BME280;50628;51.008;13.658;2023-04-28T07:20:00;99640.88;;;10.51;100.00
64292;BME280;50628;51.008;13.658;2023-04-28T07:25:04;99640.63;;;10.75;100.00
64292;BME280;50628;51.008;13.658;2023-04-28T07:30:08;99626.63;;;11.18;100.00
64292;BME280;50628;51.008;13.658;2023-04-28T07:35:10;99616.44;;;11.46;98.60
64292;BME280;50628;51.008;13.658;2023-04-28T07:40:12;99609.50;;;11.66;96.38
64292;BME280;50628;51.008;13.658;2023-04-28T07:45:15;99610.69;;;11.93;93.22
64292;BME280;50628;51.008;13.658;2023-04-28T07:50:17;99598.88;;;12.37;90.39
64292;BME280;50628;51.008;13.658;2023-04-28T07:55:19;99591.72;;;12.49;85.66
64292;BME280;50628;51.008;13.658;2023-04-28T08:00:22;99589.22;;;12.67;85.46
64292;BME280;50628;51.008;13.658;2023-04-28T08:05:25;99582.97;;;12.87;84.30
64292;BME280;50628;51.008;13.658;2023-04-28T08:10:27;99578.84;;;13.32;81.19
64292;BME280;50628;51.008;13.658;2023-04-28T08:15:30;99574.72;;;13.57;78.26
64292;BME280;50628;51.008;13.658;2023-04-28T08:20:32;99572.03;;;13.49;77.48
64292;BME280;50628;51.008;13.658;2023-04-28T08:25:34;99572.38;;;13.81;75.26
64292;BME280;50628;51.008;13.658;2023-04-28T08:30:37;99570.56;;;13.82;75.07
64292;BME280;50628;51.008;13.658;2023-04-28T08:35:39;99568.47;;;13.40;76.14
64292;BME280;50628;51.008;13.658;2023-04-28T08:40:41;99559.28;;;13.81;74.24
64292;BME280;50628;51.008;13.658;2023-04-28T08:45:44;99557.34;;;13.83;73.46
64292;BME280;50628;51.008;13.658;2023-04-28T08:50:48;99555.53;;;14.20;72.50
64292;BME280;50628;51.008;13.658;2023-04-28T08:55:53;99547.72;;;14.28;72.27
64292;BME280;50628;51.008;13.658;2023-04-28T09:00:57;99541.81;;;14.70;72.78
64292;BME280;50628;51.008;13.658;2023-04-28T09:06:00;99541.41;;;14.83;74.22
64292;BME280;50628;51.008;13.658;2023-04-28T09:11:06;99542.59;;;14.97;73.27
64292;BME280;50628;51.008;13.658;2023-04-28T09:16:10;99521.06;;;15.19;70.43
64292;BME280;50628;51.008;13.658;2023-04-28T09:21:12;99534.84;;;15.21;67.98
64292;BME280;50628;51.008;13.658;2023-04-28T09:26:14;99531.72;;;15.09;64.32
64292;BME280;50628;51.008;13.658;2023-04-28T09:31:24;99534.44;;;15.42;63.75
64292;BME280;50628;51.008;13.658;2023-04-28T09:36:27;99528.56;;;15.56;61.30
64292;BME280;50628;51.008;13.658;2023-04-28T09:41:36;99515.84;;;15.86;60.66
64292;BME280;50628;51.008;13.658;2023-04-28T09:46:41;99521.53;;;15.65;58.99
64292;BME280;50628;51.008;13.658;2023-04-28T09:51:44;99515.03;;;15.77;59.00
64292;BME280;50628;51.008;13.658;2023-04-28T09:56:46;99522.88;;;15.69;60.32
64292;BME280;50628;51.008;13.658;2023-04-28T10:01:50;99520.47;;;15.33;61.19
64292;BME280;50628;51.008;13.658;2023-04-28T10:06:52;99520.84;;;15.04;68.13
64292;BME280;50628;51.008;13.658;2023-04-28T10:11:54;99530.94;;;14.83;69.59
64292;BME280;50628;51.008;13.658;2023-04-28T10:16:58;99529.22;;;14.74;71.07
64292;BME280;50628;51.008;13.658;2023-04-28T10:22:16;99543.88;;;14.58;75.63
64292;BME280;50628;51.008;13.658;2023-04-28T10:27:28;99556.66;;;13.81;94.65
64292;BME280;50628;51.008;13.658;2023-04-28T10:32:32;99557.34;;;13.38;100.00
64292;BME280;50628;51.008;13.658;2023-04-28T10:38:04;99560.59;;;13.12;100.00
64292;BME280;50628;51.008;13.658;2023-04-28T10:43:06;99557.50;;;12.99;100.00
64292;BME280;50628;51.008;13.658;2023-04-28T10:48:10;99555.47;;;12.93;100.00
64292;BME280;50628;51.008;13.658;2023-04-28T10:53:12;99557.78;;;12.96;100.00
64292;BME280;50628;51.008;13.658;2023-04-28T10:58:29;99556.28;;;12.93;100.00
64292;BME280;50628;51.008;13.658;2023-04-28T11:03:47;99562.94;;;12.78;100.00
64292;BME280;50628;51.008;13.658;2023-04-28T11:08:50;99553.97;;;12.90;100.00
64292;BME280;50628;51.008;13.658;2023-04-28T11:13:53;99563.06;;;12.76;100.00
64292;BME280;50628;51.008;13.658;2023-04-28T11:19:01;99561.88;;;12.71;100.00
64292;BME280;50628;51.008;13.658;2023-04-28T11:24:08;99568.00;;;12.80;100.00
64292;BME280;50628;51.008;13.658;2023-04-28T11:29:12;99578.22;;;12.73;100.00
64292;BME280;50628;51.008;13.658;2023-04-28T11:34:18;99572.13;;;12.82;100.00
64292;BME280;50628;51.008;13.658;2023-04-28T11:39:25;99572.88;;;13.02;100.00
64292;BME280;50628;51.008;13.658;2023-04-28T11:44:29;99575.41;;;12.94;100.00
64292;BME280;50628;51.008;13.658;2023-04-28T11:49:42;99565.78;;;12.85;100.00
64292;BME280;50628;51.008;13.658;2023-04-28T11:54:44;99567.22;;;12.69;100.00
64292;BME280;50628;51.008;13.658;2023-04-28T11:59:46;99564.63;;;12.60;100.00
64292;BME280;50628;51.008;13.658;2023-04-28T12:04:50;99561.03;;;12.70;100.00
64292;BME280;50628;51.008;13.658;2023-04-28T12:10:10;99560.59;;;12.75;100.00
64292;BME280;50628;51.008;13.658;2023-04-28T12:15:12;99545.78;;;12.75;100.00
64292;BME280;50628;51.008;13.658;2023-04-28T12:20:36;99540.91;;;12.90;100.00
64292;BME280;50628;51.008;13.658;2023-04-28T12:25:45;99533.25;;;13.07;100.00
64292;BME280;50628;51.008;13.658;2023-04-28T12:30:47;99534.84;;;13.27;100.00
64292;BME280;50628;51.008;13.658;2023-04-28T12:35:51;99528.09;;;13.25;100.00
64292;BME280;50628;51.008;13.658;2023-04-28T12:40:54;99533.50;;;12.86;100.00
64292;BME280;50628;51.008;13.658;2023-04-28T12:45:56;99533.34;;;12.87;100.00
64292;BME280;50628;51.008;13.658;2023-04-28T12:51:01;99525.06;;;12.92;100.00
64292;BME280;50628;51.008;13.658;2023-04-28T12:56:03;99516.94;;;12.95;100.00
64292;BME280;50628;51.008;13.658;2023-04-28T13:01:05;99522.16;;;12.95;100.00
64292;BME280;50628;51.008;13.658;2023-04-28T13:06:09;99526.19;;;12.89;100.00
64292;BME280;50628;51.008;13.658;2023-04-28T13:11:11;99509.09;;;12.95;100.00
64292;BME280;50628;51.008;13.658;2023-04-28T13:16:13;99495.63;;;12.99;100.00
64292;BME280;50628;51.008;13.658;2023-04-28T13:21:16;99495.63;;;12.99;100.00
64292;BME280;50628;51.008;13.658;2023-04-28T13:26:18;99496.63;;;12.89;100.00
64292;BME280;50628;51.008;13.658;2023-04-28T13:31:21;99489.13;;;12.39;100.00
64292;BME280;50628;51.008;13.658;2023-04-28T13:36:24;99485.34;;;12.61;100.00
64292;BME280;50628;51.008;13.658;2023-04-28T13:41:28;99469.63;;;12.33;100.00
64292;BME280;50628;51.008;13.658;2023-04-28T13:46:30;99464.41;;;12.33;100.00
64292;BME280;50628;51.008;13.658;2023-04-28T13:51:34;99457.94;;;12.37;100.00
64292;BME280;50628;51.008;13.658;2023-04-28T13:56:36;99461.25;;;12.29;100.00
64292;BME280;50628;51.008;13.658;2023-04-28T14:01:38;99455.72;;;12.42;100.00
64292;BME280;50628;51.008;13.658;2023-04-28T14:06:41;99457.28;;;12.25;100.00
64292;BME280;50628;51.008;13.658;2023-04-28T14:11:43;99448.06;;;12.31;100.00
64292;BME280;50628;51.008;13.658;2023-04-28T14:16:46;99438.13;;;12.44;100.00
64292;BME280;50628;51.008;13.658;2023-04-28T14:21:49;99435.00;;;12.41;100.00
64292;BME280;50628;51.008;13.658;2023-04-28T14:26:51;99425.34;;;12.51;100.00
64292;BME280;50628;51.008;13.658;2023-04-28T14:31:53;99415.72;;;12.79;100.00
64292;BME280;50628;51.008;13.658;2023-04-28T14:36:56;99409.03;;;13.12;100.00
64292;BME280;50628;51.008;13.658;2023-04-28T14:41:58;99409.28;;;13.19;100.00
64292;BME280;50628;51.008;13.658;2023-04-28T14:47:01;99401.44;;;13.19;100.00
64292;BME280;50628;51.008;13.658;2023-04-28T14:52:05;99390.00;;;13.20;100.00
64292;BME280;50628;51.008;13.658;2023-04-28T14:57:06;99388.75;;;13.24;100.00
64292;BME280;50628;51.008;13.658;2023-04-28T15:02:08;99376.53;;;13.42;100.00
64292;BME280;50628;51.008;13.658;2023-04-28T15:07:12;99377.44;;;13.51;100.00
64292;BME280;50628;51.008;13.658;2023-04-28T15:12:14;99378.16;;;13.26;100.00
64292;BME280;50628;51.008;13.658;2023-04-28T15:17:16;99375.09;;;13.30;100.00
64292;BME280;50628;51.008;13.658;2023-04-28T15:22:19;99374.28;;;13.30;100.00
64292;BME280;50628;51.008;13.658;2023-04-28T15:27:21;99374.47;;;13.28;100.00
64292;BME280;50628;51.008;13.658;2023-04-28T15:32:23;99370.59;;;13.05;100.00
64292;BME280;50628;51.008;13.658;2023-04-28T15:37:47;99367.91;;;13.14;100.00
64292;BME280;50628;51.008;13.658;2023-04-28T15:42:51;99358.22;;;13.07;100.00
64292;BME280;50628;51.008;13.658;2023-04-28T15:47:53;99340.44;;;12.92;100.00
64292;BME280;50628;51.008;13.658;2023-04-28T15:52:57;99356.34;;;12.81;100.00
64292;BME280;50628;51.008;13.658;2023-04-28T15:57:59;99344.78;;;12.84;100.00
64292;BME280;50628;51.008;13.658;2023-04-28T16:03:01;99350.66;;;12.68;100.00
64292;BME280;50628;51.008;13.658;2023-04-28T16:08:05;99342.19;;;12.56;100.00
64292;BME280;50628;51.008;13.658;2023-04-28T16:13:07;99342.88;;;12.58;100.00
64292;BME280;50628;51.008;13.658;2023-04-28T16:18:10;99343.47;;;12.70;100.00
64292;BME280;50628;51.008;13.658;2023-04-28T16:23:14;99339.53;;;12.66;100.00
64292;BME280;50628;51.008;13.658;2023-04-28T16:28:16;99339.56;;;12.56;100.00
64292;BME280;50628;51.008;13.658;2023-04-28T16:33:18;99326.66;;;12.54;100.00
64292;BME280;50628;51.008;13.658;2023-04-28T16:38:21;99322.19;;;12.65;100.00
64292;BME280;50628;51.008;13.658;2023-04-28T16:43:23;99314.59;;;12.53;100.00
64292;BME280;50628;51.008;13.658;2023-04-28T16:48:25;99317.16;;;12.63;100.00
64292;BME280;50628;51.008;13.658;2023-04-28T16:53:28;99314.22;;;12.48;100.00
64292;BME280;50628;51.008;13.658;2023-04-28T16:58:30;99307.66;;;12.62;100.00
64292;BME280;50628;51.008;13.658;2023-04-28T17:03:33;99301.41;;;12.73;100.00
64292;BME280;50628;51.008;13.658;2023-04-28T17:08:41;99301.47;;;12.63;100.00
64292;BME280;50628;51.008;13.658;2023-04-28T17:13:44;99285.63;;;12.47;100.00
64292;BME280;50628;51.008;13.658;2023-04-28T17:18:46;99290.03;;;12.46;100.00
64292;BME280;50628;51.008;13.658;2023-04-28T17:23:49;99292.94;;;12.43;100.00
64292;BME280;50628;51.008;13.658;2023-04-28T17:28:51;99287.97;;;12.50;100.00
64292;BME280;50628;51.008;13.658;2023-04-28T17:33:56;99285.06;;;12.53;100.00
64292;BME280;50628;51.008;13.658;2023-04-28T17:38:59;99294.13;;;12.49;100.00
64292;BME280;50628;51.008;13.658;2023-04-28T17:44:02;99290.59;;;12.50;100.00
64292;BME280;50628;51.008;13.658;2023-04-28T17:49:04;99283.75;;;12.39;100.00
64292;BME280;50628;51.008;13.658;2023-04-28T17:54:07;99280.09;;;12.32;100.00
64292;BME280;50628;51.008;13.658;2023-04-28T17:59:09;99280.94;;;12.32;100.00
64292;BME280;50628;51.008;13.658;2023-04-28T18:04:13;99295.81;;;12.22;100.00
64292;BME280;50628;51.008;13.658;2023-04-28T18:09:17;99296.38;;;12.16;100.00
64292;BME280;50628;51.008;13.658;2023-04-28T18:14:18;99296.28;;;12.08;100.00
64292;BME280;50628;51.008;13.658;2023-04-28T18:19:20;99293.25;;;12.12;100.00
64292;BME280;50628;51.008;13.658;2023-04-28T18:24:24;99306.47;;;12.01;100.00
64292;BME280;50628;51.008;13.658;2023-04-28T18:29:25;99296.22;;;11.90;100.00
64292;BME280;50628;51.008;13.658;2023-04-28T18:34:27;99288.50;;;11.98;100.00
64292;BME280;50628;51.008;13.658;2023-04-28T18:39:31;99291.81;;;11.81;100.00
64292;BME280;50628;51.008;13.658;2023-04-28T18:44:32;99296.91;;;11.82;100.00
64292;BME280;50628;51.008;13.658;2023-04-28T18:49:34;99294.84;;;11.76;100.00
64292;BME280;50628;51.008;13.658;2023-04-28T18:54:38;99297.63;;;11.75;100.00
64292;BME280;50628;51.008;13.658;2023-04-28T18:59:40;99304.47;;;11.76;100.00
64292;BME280;50628;51.008;13.658;2023-04-28T19:04:44;99315.19;;;11.73;100.00
64292;BME280;50628;51.008;13.658;2023-04-28T19:09:47;99310.09;;;11.71;100.00
64292;BME280;50628;51.008;13.658;2023-04-28T19:14:49;99312.16;;;11.77;100.00
64292;BME280;50628;51.008;13.658;2023-04-28T19:19:53;99308.44;;;11.80;100.00
64292;BME280;50628;51.008;13.658;2023-04-28T19:24:57;99307.88;;;11.76;100.00
64292;BME280;50628;51.008;13.658;2023-04-28T19:29:59;99307.63;;;11.79;100.00
64292;BME280;50628;51.008;13.658;2023-04-28T19:35:02;99301.59;;;11.69;100.00
64292;BME280;50628;51.008;13.658;2023-04-28T19:40:07;99305.16;;;11.68;100.00
64292;BME280;50628;51.008;13.658;2023-04-28T19:45:10;99296.13;;;11.72;100.00
64292;BME280;50628;51.008;13.658;2023-04-28T19:50:11;99293.13;;;11.67;100.00
64292;BME280;50628;51.008;13.658;2023-04-28T19:55:15;99274.56;;;11.70;100.00
64292;BME280;50628;51.008;13.658;2023-04-28T20:00:18;99278.44;;;11.56;100.00
64292;BME280;50628;51.008;13.658;2023-04-28T20:05:21;99275.03;;;11.56;100.00
64292;BME280;50628;51.008;13.658;2023-04-28T20:10:24;99278.31;;;11.58;100.00
64292;BME280;50628;51.008;13.658;2023-04-28T20:15:26;99282.13;;;11.63;100.00
64292;BME280;50628;51.008;13.658;2023-04-28T20:20:28;99279.81;;;11.60;100.00
64292;BME280;50628;51.008;13.658;2023-04-28T20:25:34;99273.91;;;11.58;100.00
64292;BME280;50628;51.008;13.658;2023-04-28T20:30:38;99267.19;;;11.56;100.00
64292;BME280;50628;51.008;13.658;2023-04-28T20:35:41;99263.09;;;11.53;100.00
64292;BME280;50628;51.008;13.658;2023-04-28T20:40:45;99261.75;;;11.49;100.00
64292;BME280;50628;51.008;13.658;2023-04-28T20:45:47;99247.09;;;11.38;100.00
64292;BME280;50628;51.008;13.658;2023-04-28T20:50:49;99257.97;;;11.24;100.00
64292;BME280;50628;51.008;13.658;2023-04-28T20:55:54;99254.28;;;11.07;100.00
64292;BME280;50628;51.008;13.658;2023-04-28T21:00:55;99255.09;;;11.08;100.00
64292;BME280;50628;51.008;13.658;2023-04-28T21:05:57;99249.34;;;11.04;100.00
64292;BME280;50628;51.008;13.658;2023-04-28T21:11:00;99250.44;;;10.92;100.00
64292;BME280;50628;51.008;13.658;2023-04-28T21:16:03;99255.66;;;10.92;100.00
64292;BME280;50628;51.008;13.658;2023-04-28T21:21:05;99248.66;;;10.82;100.00
64292;BME280;50628;51.008;13.658;2023-04-28T21:26:08;99245.09;;;10.64;100.00
64292;BME280;50628;51.008;13.658;2023-04-28T21:31:10;99248.28;;;10.27;100.00
64292;BME280;50628;51.008;13.658;2023-04-28T21:36:12;99232.34;;;10.42;100.00
64292;BME280;50628;51.008;13.658;2023-04-28T21:41:16;99237.00;;;10.57;100.00
64292;BME280;50628;51.008;13.658;2023-04-28T21:46:18;99237.28;;;10.64;100.00
64292;BME280;50628;51.008;13.658;2023-04-28T21:51:20;99239.63;;;10.67;100.00
64292;BME280;50628;51.008;13.658;2023-04-28T21:56:23;99237.41;;;10.53;100.00
64292;BME280;50628;51.008;13.658;2023-04-28T22:01:25;99241.09;;;10.50;100.00
64292;BME280;50628;51.008;13.658;2023-04-28T22:06:27;99240.16;;;10.51;100.00
64292;BME280;50628;51.008;13.658;2023-04-28T22:11:30;99225.91;;;10.55;100.00
64292;BME280;50628;51.008;13.658;2023-04-28T22:16:32;99206.06;;;10.54;100.00
64292;BME280;50628;51.008;13.658;2023-04-28T22:21:34;99207.28;;;10.40;100.00
64292;BME280;50628;51.008;13.658;2023-04-28T22:26:38;99210.31;;;10.36;100.00
64292;BME280;50628;51.008;13.658;2023-04-28T22:31:40;99215.75;;;10.43;100.00
64292;BME280;50628;51.008;13.658;2023-04-28T22:36:42;99233.03;;;10.44;100.00
64292;BME280;50628;51.008;13.658;2023-04-28T22:41:45;99239.34;;;10.41;100.00
64292;BME280;50628;51.008;13.658;2023-04-28T22:46:47;99241.38;;;10.47;100.00
64292;BME280;50628;51.008;13.658;2023-04-28T22:51:49;99240.84;;;10.53;100.00
64292;BME280;50628;51.008;13.658;2023-04-28T22:56:52;99236.88;;;10.59;100.00
64292;BME280;50628;51.008;13.658;2023-04-28T23:01:54;99222.28;;;10.27;100.00
64292;BME280;50628;51.008;13.658;2023-04-28T23:06:56;99225.03;;;10.26;100.00
64292;BME280;50628;51.008;13.658;2023-04-28T23:11:59;99215.47;;;10.26;100.00
64292;BME280;50628;51.008;13.658;2023-04-28T23:17:02;99202.84;;;10.22;100.00
64292;BME280;50628;51.008;13.658;2023-04-28T23:22:04;99208.75;;;10.24;100.00
64292;BME280;50628;51.008;13.658;2023-04-28T23:27:08;99203.25;;;10.27;100.00
64292;BME280;50628;51.008;13.658;2023-04-28T23:32:10;99185.69;;;10.00;100.00
64292;BME280;50628;51.008;13.658;2023-04-28T23:37:12;99203.38;;;10.06;100.00
64292;BME280;50628;51.008;13.658;2023-04-28T23:42:15;99203.19;;;9.97;100.00
64292;BME280;50628;51.008;13.658;2023-04-28T23:47:17;99210.28;;;9.86;100.00
64292;BME280;50628;51.008;13.658;2023-04-28T23:52:19;99204.25;;;9.75;100.00
64292;BME280;50628;51.008;13.658;2023-04-28T23:57:22;99199.81;;;9.66;100.00
